Time;durP1;ratioP1;P1;durP2;ratioP2;P2;SDS_P1;SDS_P2;PMS_P1;PMS_P2;Temp;Humidity;BMP_temperature;BMP_pressure;BME280_temperature;BME280_humidity;BME280_pressure;Samples;Min_cycle;Max_cycle;Signal;HPM_P1;HPM_P2
2022/09/05 00:02:37;;;;;;;3.03;2.08;;;;;;;21.68;35.25;101509.00;5074011;28;20049;-80
2022/09/05 00:05:28;;;;;;;3.78;2.08;;;;;;;21.67;35.08;101505.34;5061357;28;20101;-80
2022/09/05 00:08:06;;;;;;;3.50;2.20;;;;;;;21.67;35.19;101512.84;5065641;28;20044;-80
2022/09/05 00:10:50;;;;;;;3.90;2.40;;;;;;;21.65;35.19;101513.03;5070368;28;20036;-80
2022/09/05 00:13:42;;;;;;;3.22;2.20;;;;;;;21.62;34.90;101516.19;5060799;28;20530;-80
2022/09/05 00:16:25;;;;;;;;;;;;;;;21.32;35.22;101520.88;5061985;28;20040;-80
2022/09/05 00:19:09;;;;;;;3.60;1.88;;;;;;;21.58;35.03;101513.97;5069758;28;19920;-80
2022/09/05 00:22:13;;;;;;;3.95;2.10;;;;;;;21.59;35.17;101518.50;5093055;28;20079;-79
2022/09/05 00:25:27;;;;;;;3.20;2.20;;;;;;;21.53;35.07;101515.41;5063988;28;20043;-80
2022/09/05 00:28:07;;;;;;;2.95;2.00;;;;;;;21.54;35.16;101510.69;5060553;28;20036;-80
2022/09/05 00:31:29;;;;;;;3.60;2.33;;;;;;;21.50;35.62;101514.94;5063857;28;20072;-79
2022/09/05 00:34:31;;;;;;;3.80;2.20;;;;;;;21.48;35.59;101503.97;5069765;28;20474;-80
2022/09/05 00:37:30;;;;;;;2.50;1.92;;;;;;;21.45;35.37;101504.34;5053993;28;20141;-80
2022/09/05 00:40:19;;;;;;;3.50;2.50;;;;;;;21.43;35.30;101505.63;5064629;28;20082;-79
2022/09/05 00:42:52;;;;;;;3.25;2.03;;;;;;;21.40;35.69;101509.63;5053207;28;20044;-79
2022/09/05 00:45:28;;;;;;;3.80;2.35;;;;;;;21.39;35.27;101502.34;5066597;28;20102;-79
2022/09/05 00:48:06;;;;;;;4.30;2.47;;;;;;;21.36;35.49;101508.28;5076179;28;20041;-80
2022/09/05 00:50:44;;;;;;;2.88;1.90;;;;;;;21.35;35.59;101516.84;5070030;28;20111;-79
2022/09/05 00:53:20;;;;;;;3.22;2.10;;;;;;;21.34;35.49;101515.13;5062948;28;20052;-80
2022/09/05 00:56:03;;;;;;;3.35;2.10;;;;;;;21.31;35.80;101516.34;5070851;28;20045;-80
2022/09/05 00:58:51;;;;;;;2.90;2.13;;;;;;;21.29;35.73;101514.78;5067389;28;20048;-80
2022/09/05 01:01:29;;;;;;;3.10;2.13;;;;;;;21.25;35.85;101511.50;5069839;28;20123;-79
2022/09/05 01:04:16;;;;;;;4.40;2.17;;;;;;;21.24;35.77;101512.56;5064774;28;20101;-79
2022/09/05 01:07:03;;;;;;;3.17;2.28;;;;;;;21.21;35.83;101512.06;5070874;28;20052;-79
2022/09/05 01:09:48;;;;;;;3.65;2.15;;;;;;;21.17;36.04;101517.16;5063372;28;20159;-79
2022/09/05 01:12:42;;;;;;;3.05;2.17;;;;;;;21.14;36.11;101514.72;5065977;28;20110;-80
2022/09/05 01:15:32;;;;;;;3.72;2.40;;;;;;;21.11;36.46;101517.88;5058492;28;20076;-80
2022/09/05 01:18:26;;;;;;;3.28;2.38;;;;;;;21.09;36.43;101520.00;5068926;28;20427;-79
2022/09/05 01:21:44;;;;;;;3.05;2.25;;;;;;;20.97;35.75;101518.72;5068116;28;20053;-79
2022/09/05 01:24:45;;;;;;;3.50;2.42;;;;;;;20.99;36.20;101511.91;5070515;28;20055;-79
2022/09/05 01:27:51;;;;;;;3.28;2.17;;;;;;;20.92;36.28;101512.84;5071676;28;20468;-80
2022/09/05 01:30:46;;;;;;;3.47;2.20;;;;;;;20.92;36.01;101513.72;5060982;28;20070;-80
2022/09/05 01:33:25;;;;;;;4.60;2.30;;;;;;;20.92;36.66;101518.41;5085790;28;20041;-80
2022/09/05 01:36:17;;;;;;;3.60;2.30;;;;;;;20.86;36.06;101514.44;5069091;28;20102;-80
2022/09/05 01:38:56;;;;;;;3.27;2.13;;;;;;;20.83;36.81;101514.84;5065835;28;20380;-79
2022/09/05 01:41:57;;;;;;;3.53;2.35;;;;;;;20.82;36.49;101510.31;5061886;28;20386;-79
2022/09/05 01:44:41;;;;;;;3.15;2.10;;;;;;;20.79;36.72;101502.34;5069698;28;20040;-79
2022/09/05 01:47:26;;;;;;;4.95;2.33;;;;;;;20.77;36.60;101504.47;5063883;28;20114;-79
2022/09/05 01:50:09;;;;;;;3.22;2.30;;;;;;;20.74;36.48;101505.69;5065139;28;20045;-79
2022/09/05 01:52:55;;;;;;;4.15;2.40;;;;;;;20.72;36.46;101498.56;5063629;28;20642;-79
2022/09/05 01:55:51;;;;;;;3.83;2.35;;;;;;;20.68;36.63;101495.31;5060910;28;20036;-79
2022/09/05 01:58:49;;;;;;;4.47;2.50;;;;;;;20.64;36.54;101513.41;5057650;28;20447;-80
2022/09/05 02:01:27;;;;;;;3.50;2.30;;;;;;;20.60;37.11;101509.28;5069350;28;20044;-80
2022/09/05 02:04:20;;;;;;;3.20;2.25;;;;;;;20.57;37.11;101508.72;5069138;28;20715;-80
2022/09/05 02:07:01;;;;;;;3.97;2.15;;;;;;;20.56;36.64;101501.44;5069707;28;20041;-80
2022/09/05 02:10:12;;;;;;;3.20;2.20;;;;;;;20.53;37.08;101505.44;5082505;28;20140;-79
2022/09/05 02:12:45;;;;;;;3.65;1.95;;;;;;;20.50;37.03;101508.59;5062209;28;20049;-79
2022/09/05 02:15:41;;;;;;;3.65;2.38;;;;;;;20.48;37.11;101505.13;5065238;28;20044;-80
2022/09/05 02:18:23;;;;;;;4.07;2.42;;;;;;;20.45;37.30;101511.06;5065838;28;20099;-80
2022/09/05 02:20:57;;;;;;;4.03;2.30;;;;;;;20.43;37.34;101509.53;5066474;28;20098;-79
2022/09/05 02:23:37;;;;;;;5.05;2.10;;;;;;;20.40;37.30;101506.06;5061571;28;20130;-80
2022/09/05 02:26:16;;;;;;;4.00;2.20;;;;;;;20.37;37.03;101513.88;5062061;28;20128;-80
2022/09/05 02:28:54;;;;;;;3.85;2.17;;;;;;;20.34;37.30;101512.38;5064157;28;20037;-80
2022/09/05 02:31:30;;;;;;;3.63;2.38;;;;;;;20.30;37.41;101508.19;5066889;28;20118;-80
2022/09/05 02:34:08;;;;;;;4.10;2.33;;;;;;;20.27;37.33;101510.50;5060931;28;20060;-80
2022/09/05 02:36:43;;;;;;;4.93;2.50;;;;;;;20.25;37.42;101513.47;5060663;28;20429;-80
2022/09/05 02:39:20;;;;;;;3.38;2.28;;;;;;;20.23;37.53;101515.53;5079608;28;20049;-80
2022/09/05 02:42:16;;;;;;;4.22;2.15;;;;;;;20.20;37.48;101513.13;5065199;28;20038;-80
2022/09/05 02:45:21;;;;;;;2.85;2.10;;;;;;;20.16;37.74;101508.97;5074243;28;20036;-80
2022/09/05 02:48:05;;;;;;;3.10;2.30;;;;;;;20.15;37.58;101511.94;5062918;28;20472;-81
2022/09/05 02:51:00;;;;;;;2.90;1.95;;;;;;;20.12;37.61;101513.16;5070223;28;20138;-80
2022/09/05 02:53:55;;;;;;;2.90;2.00;;;;;;;20.08;37.39;101514.59;5078536;28;20514;-80
2022/09/05 02:56:56;;;;;;;4.05;2.13;;;;;;;20.07;37.69;101523.09;5090075;28;20090;-80
2022/09/05 03:00:01;;;;;;;4.43;2.10;;;;;;;20.04;37.51;101517.91;5065466;28;20503;-80
2022/09/05 03:02:37;;;;;;;2.80;2.10;;;;;;;20.00;37.79;101515.50;5069258;28;20040;-80
2022/09/05 03:05:13;;;;;;;3.38;1.83;;;;;;;20.00;37.74;101518.28;5068207;28;20111;-80
2022/09/05 03:08:07;;;;;;;3.83;2.30;;;;;;;19.98;37.81;101511.16;5067510;28;20132;-79
2022/09/05 03:11:07;;;;;;;3.38;2.25;;;;;;;19.94;37.71;101518.13;5066248;28;20124;-80
2022/09/05 03:14:26;;;;;;;3.78;2.35;;;;;;;19.87;37.65;101515.16;5066953;28;20072;-80
2022/09/05 03:17:28;;;;;;;3.20;2.30;;;;;;;19.86;37.98;101515.34;5069844;28;20048;-80
2022/09/05 03:20:40;;;;;;;4.50;2.28;;;;;;;19.79;38.37;101519.91;5044567;28;20049;-80
2022/09/05 03:23:59;;;;;;;3.13;1.92;;;;;;;19.79;38.39;101511.56;5063168;28;20036;-80
2022/09/05 03:26:56;;;;;;;3.17;2.00;;;;;;;19.79;38.37;101514.34;5066650;28;20040;-80
2022/09/05 03:30:10;;;;;;;2.97;2.00;;;;;;;19.73;38.22;101509.47;5061332;28;20086;-80
2022/09/05 03:33:06;;;;;;;3.03;2.00;;;;;;;19.74;38.10;101509.31;5037182;28;20055;-80
2022/09/05 03:36:08;;;;;;;2.80;1.98;;;;;;;19.73;38.14;101520.59;5073488;28;20049;-79
2022/09/05 03:39:22;;;;;;;4.25;2.15;;;;;;;19.64;38.57;101517.84;5051775;28;20797;-79
2022/09/05 03:42:30;;;;;;;3.03;2.10;;;;;;;19.68;38.14;101514.72;5085141;28;20044;-79
2022/09/05 03:45:20;;;;;;;3.33;2.10;;;;;;;19.67;38.17;101519.41;5065919;28;20037;-80
2022/09/05 03:48:31;;;;;;;3.90;2.10;;;;;;;19.64;38.18;101516.97;5070044;28;20119;-80
2022/09/05 03:51:13;;;;;;;2.75;1.95;;;;;;;19.64;38.42;101522.53;5056737;28;20415;-79
2022/09/05 03:54:32;;;;;;;3.53;2.08;;;;;;;19.60;38.68;101513.69;5064933;28;20040;-80
2022/09/05 03:57:59;;;;;;;3.15;2.05;;;;;;;19.57;38.27;101513.16;5066071;28;20087;-80
2022/09/05 04:01:01;;;;;;;3.30;2.00;;;;;;;19.58;38.46;101518.56;5070928;28;20040;-79
2022/09/05 04:03:54;;;;;;;3.03;2.15;;;;;;;19.60;38.42;101513.69;5069962;28;20420;-80
2022/09/05 04:06:46;;;;;;;;;;;;;;;19.31;38.59;101516.16;5066399;28;20041;-81
2022/09/05 04:09:40;;;;;;;3.00;2.03;;;;;;;19.60;38.26;101515.59;5065434;28;20367;-80
2022/09/05 04:12:26;;;;;;;3.28;2.03;;;;;;;19.63;38.42;101518.00;5060454;28;20052;-80
2022/09/05 04:15:00;;;;;;;3.22;2.03;;;;;;;19.63;38.26;101520.78;5064877;28;20101;-81
2022/09/05 04:17:36;;;;;;;3.20;2.15;;;;;;;19.63;38.49;101523.56;5063837;28;20051;-81
2022/09/05 04:20:12;;;;;;;4.22;2.30;;;;;;;19.63;38.74;101521.66;5068156;28;20044;-81
2022/09/05 04:23:04;;;;;;;3.85;2.33;;;;;;;19.63;38.54;101529.97;5057224;28;20091;-81
2022/09/05 04:25:48;;;;;;;3.40;2.20;;;;;;;19.61;38.40;101525.66;5060865;28;20052;-82
2022/09/05 04:28:46;;;;;;;3.30;2.20;;;;;;;19.61;38.38;101525.66;5066334;28;20043;-81
2022/09/05 04:31:32;;;;;;;3.10;2.00;;;;;;;19.61;38.61;101532.09;5060443;28;20478;-79
2022/09/05 04:34:16;;;;;;;3.30;1.92;;;;;;;19.60;38.70;101529.50;5059837;28;20048;-80
2022/09/05 04:37:00;;;;;;;3.67;2.20;;;;;;;19.58;38.49;101529.66;5063195;28;20127;-80
2022/09/05 04:39:30;;;;;;;3.45;2.45;;;;;;;19.56;38.52;101528.97;5067037;28;20044;-81
2022/09/05 04:42:16;;;;;;;3.40;2.20;;;;;;;19.58;38.83;101526.00;5060987;28;20697;-81
2022/09/05 04:44:46;;;;;;;;;;;;;;;19.26;39.06;101540.81;5059155;28;20158;-81
2022/09/05 04:47:20;;;;;;;2.70;2.03;;;;;;;19.51;38.85;101534.19;5059489;28;20402;-81
2022/09/05 04:49:57;;;;;;;3.60;2.50;;;;;;;19.51;38.84;101530.56;5063888;28;20040;-81
2022/09/05 04:52:52;;;;;;;3.63;2.40;;;;;;;19.50;38.47;101529.69;5053903;28;20076;-80
2022/09/05 04:55:25;;;;;;;3.17;2.22;;;;;;;19.45;38.45;101526.56;5053269;28;20471;-81
2022/09/05 04:57:58;;;;;;;5.30;2.47;;;;;;;19.45;38.83;101531.25;5065445;28;20052;-81
2022/09/05 05:00:36;;;;;;;3.58;2.55;;;;;;;19.42;39.21;101538.03;5060345;28;20102;-80
2022/09/05 05:03:30;;;;;;;3.47;2.20;;;;;;;19.39;38.89;101543.03;5076802;28;20059;-81
2022/09/05 05:06:25;;;;;;;4.18;2.47;;;;;;;19.37;39.21;101553.47;5058256;28;20048;-81
2022/09/05 05:09:20;;;;;;;3.40;2.40;;;;;;;19.35;38.90;101547.22;5064130;28;20546;-81
2022/09/05 05:11:54;;;;;;;4.05;2.80;;;;;;;19.33;38.93;101554.84;5063077;28;20191;-80
2022/09/05 05:14:48;;;;;;;3.40;2.22;;;;;;;19.32;39.11;101550.34;5056236;28;20139;-81
2022/09/05 05:17:40;;;;;;;3.78;2.38;;;;;;;19.30;39.08;101555.19;5060107;28;20047;-81
2022/09/05 05:20:36;;;;;;;4.95;2.63;;;;;;;19.26;39.18;101563.91;5049910;28;20049;-80
2022/09/05 05:23:14;;;;;;;5.03;2.80;;;;;;;19.24;39.27;101557.63;5062046;28;20033;-78
2022/09/05 05:25:50;;;;;;;4.50;2.67;;;;;;;19.25;39.67;101561.28;5064100;28;20040;-79
2022/09/05 05:28:28;;;;;;;3.30;2.50;;;;;;;19.24;39.67;101563.19;5063838;28;20059;-79
2022/09/05 05:31:09;;;;;;;4.22;2.53;;;;;;;19.20;39.48;101559.03;5065305;28;20058;-78
2022/09/05 05:33:40;;;;;;;3.90;2.47;;;;;;;19.19;39.00;101564.72;5055549;28;20041;-79
2022/09/05 05:36:18;;;;;;;5.30;2.80;;;;;;;19.20;39.75;101566.47;5060950;28;20037;-79
2022/09/05 05:38:52;;;;;;;4.80;2.60;;;;;;;19.16;39.55;101565.94;5060616;28;20495;-79
2022/09/05 05:41:25;;;;;;;4.80;2.92;;;;;;;19.16;39.63;101565.06;5053360;28;20515;-77
2022/09/05 05:43:53;;;;;;;5.30;3.40;;;;;;;19.12;39.54;101558.16;5062697;28;20325;-79
2022/09/05 05:46:32;;;;;;;4.68;2.75;;;;;;;19.15;40.07;101558.66;5055669;28;20399;-78
2022/09/05 05:49:15;;;;;;;4.70;2.75;;;;;;;19.14;40.14;101565.22;5065086;28;20041;-78
2022/09/05 05:51:55;;;;;;;4.03;2.88;;;;;;;19.12;39.69;101566.47;5064880;28;20453;-78
2022/09/05 05:54:42;;;;;;;4.40;2.88;;;;;;;19.13;40.29;101568.22;5062856;28;20048;-79
2022/09/05 05:57:39;;;;;;;4.88;2.85;;;;;;;19.12;40.30;101572.03;5064292;28;20040;-78
2022/09/05 06:00:20;;;;;;;4.15;2.90;;;;;;;19.14;39.89;101570.78;5060170;28;20036;-78
2022/09/05 06:03:31;;;;;;;4.25;2.85;;;;;;;19.14;40.04;101576.34;5071971;28;20415;-78
2022/09/05 06:06:21;;;;;;;4.97;3.00;;;;;;;19.14;39.99;101572.69;5066225;28;20438;-80
2022/09/05 06:09:25;;;;;;;4.75;2.88;;;;;;;19.15;40.42;101575.28;5050585;28;20076;-80
2022/09/05 06:13:01;;;;;;;4.45;2.53;;;;;;;19.16;40.05;101576.16;5053160;28;20040;-78
2022/09/05 06:16:40;;;;;;;5.22;2.50;;;;;;;19.14;40.34;101575.47;5058991;28;20055;-78
2022/09/05 06:19:53;;;;;;;5.20;2.60;;;;;;;19.17;40.07;101572.34;5006436;28;20072;-80
2022/09/05 06:23:31;;;;;;;3.90;2.42;;;;;;;19.18;40.31;101574.09;5015871;28;20037;-81
2022/09/05 06:26:41;;;;;;;4.78;2.47;;;;;;;19.25;39.99;101576.03;5068487;28;20044;-79
2022/09/05 06:29:28;;;;;;;4.63;2.27;;;;;;;19.29;40.29;101579.34;5067715;28;20472;-79
2022/09/05 06:32:20;;;;;;;4.80;2.40;;;;;;;19.34;40.06;101574.13;5067280;28;20302;-79
2022/09/05 06:35:18;;;;;;;4.18;2.30;;;;;;;19.39;40.04;101576.34;5067148;28;20044;-79
2022/09/05 06:38:02;;;;;;;5.07;2.50;;;;;;;19.43;40.10;101575.84;5072625;28;20044;-78
2022/09/05 06:40:36;;;;;;;3.88;2.38;;;;;;;19.46;39.57;101581.03;5064486;28;20059;-79
2022/09/05 06:43:17;;;;;;;4.05;2.40;;;;;;;19.52;39.94;101582.25;5083393;28;20040;-79
2022/09/05 06:46:24;;;;;;;9.07;2.50;;;;;;;19.52;39.91;101580.34;5061084;28;20131;-78
2022/09/05 06:49:17;;;;;;;3.40;2.35;;;;;;;19.61;39.54;101581.22;5063862;28;20071;-80
2022/09/05 06:52:30;;;;;;;3.53;2.35;;;;;;;19.68;39.80;101582.22;5063506;28;20131;-78
2022/09/05 06:55:37;;;;;;;3.80;2.33;;;;;;;19.76;39.38;101573.00;5086223;28;20044;-78
2022/09/05 06:58:40;;;;;;;4.07;2.28;;;;;;;19.85;39.91;101574.72;5054477;28;20603;-78
2022/09/05 07:01:12;;;;;;;4.00;2.20;;;;;;;19.99;39.59;101576.78;5063284;28;20028;-77
2022/09/05 07:04:04;;;;;;;2.88;2.10;;;;;;;20.14;39.30;101575.00;5069865;28;20080;-78
2022/09/05 07:07:05;;;;;;;5.95;2.30;;;;;;;20.32;39.53;101574.75;5068976;28;20186;-77
2022/09/05 07:09:51;;;;;;;2.90;1.98;;;;;;;20.52;39.41;101577.94;5066437;28;20094;-78
2022/09/05 07:12:25;;;;;;;4.25;2.10;;;;;;;20.70;39.51;101581.31;5063514;28;20040;-77
2022/09/05 07:15:13;;;;;;;3.50;2.10;;;;;;;20.91;38.59;101578.75;5059021;28;20041;-78
2022/09/05 07:17:53;;;;;;;3.05;2.00;;;;;;;21.13;38.49;101588.16;5060207;28;20059;-79
2022/09/05 07:20:48;;;;;;;3.47;2.00;;;;;;;21.36;38.34;101585.38;5082940;28;20053;-77
2022/09/05 07:23:47;;;;;;;3.40;1.85;;;;;;;21.61;38.01;101586.00;5052316;28;20037;-77
2022/09/05 07:26:39;;;;;;;4.03;1.80;;;;;;;21.84;37.76;101589.63;5060821;28;20076;-77
2022/09/05 07:29:28;;;;;;;4.13;2.22;;;;;;;22.07;37.55;101584.84;5055916;28;20072;-78
2022/09/05 07:32:00;;;;;;;5.65;1.98;;;;;;;22.30;37.16;101590.31;5055132;28;20503;-78
2022/09/05 07:34:31;;;;;;;3.67;2.00;;;;;;;22.51;37.42;101587.56;5061384;28;20044;-78
2022/09/05 07:37:04;;;;;;;4.30;1.92;;;;;;;22.73;37.10;101593.22;5051001;28;20136;-77
2022/09/05 07:39:48;;;;;;;4.43;2.50;;;;;;;22.94;36.72;101596.91;5052450;28;20037;-76
2022/09/05 07:42:25;;;;;;;4.40;2.10;;;;;;;23.18;36.06;101603.19;5070110;28;20068;-77
2022/09/05 07:44:57;;;;;;;4.20;2.00;;;;;;;23.38;36.23;101601.47;5070427;28;20063;-77
2022/09/05 07:47:29;;;;;;;;;;;;;;;23.23;36.68;101601.53;5066631;28;20139;-77
2022/09/05 07:50:04;;;;;;;3.35;1.88;;;;;;;23.74;35.60;101607.78;5058121;28;19920;-78
2022/09/05 07:52:55;;;;;;;4.07;1.80;;;;;;;23.98;35.43;101600.91;5061436;28;20033;-78
2022/09/05 07:55:44;;;;;;;3.20;1.80;;;;;;;24.19;35.51;101601.88;5065012;28;20041;-77
2022/09/05 07:58:38;;;;;;;3.58;1.90;;;;;;;24.45;34.51;101604.84;5066795;28;20136;-77
2022/09/05 08:01:09;;;;;;;3.80;1.90;;;;;;;24.63;34.50;101604.28;5053832;28;20071;-78
2022/09/05 08:03:39;;;;;;;3.20;1.70;;;;;;;24.83;34.21;101599.59;5055018;28;20048;-78
2022/09/05 08:06:13;;;;;;;2.78;1.77;;;;;;;25.03;33.16;101597.75;5071496;28;20040;-78
2022/09/05 08:09:07;;;;;;;3.03;1.80;;;;;;;25.24;32.56;101594.75;5053666;28;20047;-77
2022/09/05 08:12:00;;;;;;;3.65;1.85;;;;;;;25.46;32.87;101603.84;5061718;28;20094;-78
2022/09/05 08:14:43;;;;;;;4.32;2.00;;;;;;;25.66;31.30;101595.44;5063262;28;20049;-78
2022/09/05 08:17:18;;;;;;;3.40;1.90;;;;;;;25.84;31.30;101603.19;5051729;28;20044;-78
2022/09/05 08:19:56;;;;;;;3.00;1.92;;;;;;;26.00;30.97;101602.75;5055133;28;20128;-77
2022/09/05 08:22:46;;;;;;;3.10;1.85;;;;;;;26.15;30.91;101600.59;5063342;28;20048;-78
2022/09/05 08:25:26;;;;;;;6.32;2.20;;;;;;;26.31;30.87;101602.03;5050620;28;20033;-78
2022/09/05 08:28:21;;;;;;;2.83;1.58;;;;;;;26.46;30.53;101601.78;5055209;28;20058;-78
2022/09/05 08:30:58;;;;;;;3.30;1.98;;;;;;;26.60;30.03;101592.22;5059313;28;20471;-78
2022/09/05 08:33:33;;;;;;;3.30;1.92;;;;;;;26.74;29.35;101586.34;5063018;28;20072;-78
2022/09/05 08:36:08;;;;;;;3.55;2.00;;;;;;;26.87;29.39;101590.19;5057214;28;20041;-78
2022/09/05 08:38:39;;;;;;;3.75;2.05;;;;;;;26.94;29.31;101580.63;5061377;28;20044;-79
2022/09/05 08:41:15;;;;;;;2.85;1.70;;;;;;;27.05;27.73;101584.63;5071501;28;20460;-78
2022/09/05 08:43:55;;;;;;;3.33;1.92;;;;;;;27.16;27.86;101583.09;5068180;28;20040;-78
2022/09/05 08:46:50;;;;;;;2.70;1.83;;;;;;;27.21;27.39;101586.06;5065231;28;20538;-78
2022/09/05 08:49:49;;;;;;;3.42;1.60;;;;;;;27.23;27.27;101584.78;5069671;28;20044;-78
2022/09/05 08:52:30;;;;;;;2.58;1.70;;;;;;;27.30;27.47;101574.34;5050262;28;20132;-78
2022/09/05 08:55:12;;;;;;;2.92;1.95;;;;;;;27.33;27.14;101579.50;5054933;28;20048;-78
2022/09/05 08:57:58;;;;;;;;;;;;;;;27.02;28.75;101580.34;5062955;28;20177;-78
2022/09/05 09:00:34;;;;;;;3.00;1.70;;;;;;;27.37;27.17;101569.50;5052847;28;19929;-79
2022/09/05 09:03:17;;;;;;;3.78;1.85;;;;;;;27.44;26.92;101575.97;5064334;28;20041;-79
2022/09/05 09:06:20;;;;;;;2.22;1.73;;;;;;;27.48;27.23;101574.41;5067456;28;20403;-79
2022/09/05 09:09:14;;;;;;;2.80;1.42;;;;;;;27.56;27.04;101570.44;5067090;28;20047;-79
2022/09/05 09:11:51;;;;;;;2.33;1.48;;;;;;;27.66;26.69;101575.53;5044420;28;20068;-79
2022/09/05 09:14:46;;;;;;;3.03;1.65;;;;;;;27.74;26.74;101573.34;5058419;28;20090;-78
2022/09/05 09:17:25;;;;;;;2.67;1.58;;;;;;;27.86;26.20;101568.66;5066364;28;20048;-78
2022/09/05 09:20:11;;;;;;;3.45;1.80;;;;;;;27.96;26.10;101559.69;5056452;28;20045;-78
2022/09/05 09:22:50;;;;;;;4.13;2.10;;;;;;;28.04;25.76;101556.56;5056605;28;20075;-78
2022/09/05 09:25:24;;;;;;;2.47;1.67;;;;;;;28.13;24.60;101557.13;5057699;28;20084;-78
2022/09/05 09:28:39;;;;;;;2.35;1.42;;;;;;;28.15;25.11;101554.94;5051342;28;20120;-78
2022/09/05 09:31:28;;;;;;;2.63;1.30;;;;;;;28.23;25.52;101554.66;5040526;28;20087;-78
2022/09/05 09:34:18;;;;;;;3.15;1.33;;;;;;;28.32;25.34;101555.19;5058612;28;20132;-78
2022/09/05 09:37:07;;;;;;;3.08;1.67;;;;;;;28.38;24.63;101549.47;5063623;28;20066;-78
2022/09/05 09:39:50;;;;;;;3.10;1.58;;;;;;;28.48;24.63;101552.59;5068357;28;20052;-79
2022/09/05 09:42:33;;;;;;;5.65;1.90;;;;;;;28.57;24.39;101544.69;5016544;28;20107;-78
2022/09/05 09:45:17;;;;;;;3.55;1.70;;;;;;;28.67;24.59;101559.06;5051290;28;20087;-78
2022/09/05 09:48:25;;;;;;;2.92;1.73;;;;;;;28.77;24.72;101550.09;5048381;28;20433;-78
2022/09/05 09:51:25;;;;;;;3.10;1.60;;;;;;;28.88;25.26;101550.09;5015893;28;20065;-78
2022/09/05 09:54:08;;;;;;;3.45;1.70;;;;;;;29.03;24.38;101555.28;5031903;28;20140;-78
2022/09/05 09:57:21;;;;;;;2.92;1.77;;;;;;;29.14;24.10;101557.28;5063727;28;20057;-79
2022/09/05 10:00:10;;;;;;;3.85;1.80;;;;;;;29.27;24.21;101547.78;5022585;28;20132;-78
2022/09/05 10:03:02;;;;;;;3.33;1.80;;;;;;;29.39;24.46;101542.16;5054501;28;20052;-79
2022/09/05 10:06:05;;;;;;;3.00;1.63;;;;;;;29.53;23.78;101541.69;5061801;28;20041;-79
2022/09/05 10:09:14;;;;;;;2.80;1.70;;;;;;;29.69;22.81;101540.09;5056601;28;20041;-79
2022/09/05 10:12:28;;;;;;;2.88;1.55;;;;;;;29.82;22.55;101542.72;5062001;28;20047;-78
2022/09/05 10:15:01;;;;;;;2.78;1.73;;;;;;;29.95;22.31;101541.59;5059682;28;20414;-77
2022/09/05 10:18:24;;;;;;;2.70;1.58;;;;;;;30.05;21.86;101533.34;5048665;28;20048;-78
2022/09/05 10:21:10;;;;;;;4.13;1.77;;;;;;;30.19;22.22;101528.28;5049725;28;20440;-78
2022/09/05 10:24:04;;;;;;;;;;;;;;;29.93;23.73;101527.72;5050118;28;20049;-78
2022/09/05 10:27:10;;;;;;;2.33;1.40;;;;;;;30.32;21.73;101526.09;5043124;28;19981;-78
2022/09/05 10:29:45;;;;;;;1.98;1.60;;;;;;;30.49;21.32;101529.00;5059380;28;20055;-78
2022/09/05 10:32:21;;;;;;;2.80;1.70;;;;;;;30.57;20.55;101530.56;5051902;28;20072;-78
2022/09/05 10:35:25;;;;;;;3.10;1.80;;;;;;;30.62;20.02;101520.19;5058098;28;20044;-78
2022/09/05 10:38:03;;;;;;;2.90;1.70;;;;;;;30.69;19.99;101514.41;5059429;28;20049;-78
2022/09/05 10:40:42;;;;;;;2.22;1.58;;;;;;;30.73;20.33;101518.47;5064280;28;20059;-78
2022/09/05 10:43:34;;;;;;;3.58;1.70;;;;;;;30.78;20.83;101518.56;5079577;28;20052;-78
2022/09/05 10:46:15;;;;;;;2.83;1.80;;;;;;;30.85;19.78;101514.47;5078296;28;20438;-78
2022/09/05 10:49:08;;;;;;;2.70;1.60;;;;;;;30.90;21.01;101510.91;5059271;28;20037;-77
2022/09/05 10:51:45;;;;;;;2.63;1.58;;;;;;;31.01;19.58;101511.91;5061598;28;20139;-78
2022/09/05 10:54:37;;;;;;;3.33;1.77;;;;;;;31.08;19.87;101507.81;5062411;28;20057;-77
2022/09/05 10:57:19;;;;;;;2.40;1.50;;;;;;;31.16;19.83;101503.69;5061277;28;20064;-77
2022/09/05 11:00:03;;;;;;;2.20;1.40;;;;;;;31.24;19.70;101508.97;5059171;28;20060;-78
2022/09/05 11:02:57;;;;;;;2.55;1.60;;;;;;;31.31;19.55;101500.31;5060891;28;20036;-79
2022/09/05 11:05:27;;;;;;;1.92;1.40;;;;;;;31.39;19.90;101499.91;5083231;28;20498;-78
2022/09/05 11:08:07;;;;;;;2.13;1.50;;;;;;;31.48;19.24;101499.22;5070218;28;20045;-79
2022/09/05 11:10:39;;;;;;;2.58;1.40;;;;;;;31.54;19.04;101503.81;5063429;28;20051;-79
2022/09/05 11:13:16;;;;;;;2.63;1.63;;;;;;;31.63;18.14;101494.88;5065608;28;20045;-78
2022/09/05 11:15:58;;;;;;;2.08;1.60;;;;;;;31.69;17.96;101497.56;5063554;28;20036;-77
2022/09/05 11:18:55;;;;;;;2.03;1.30;;;;;;;31.69;18.06;101480.59;5061457;28;20400;-77
2022/09/05 11:21:41;;;;;;;2.45;1.30;;;;;;;31.73;18.41;101481.78;5059512;28;20041;-77
2022/09/05 11:24:25;;;;;;;2.83;1.30;;;;;;;31.78;17.76;101469.66;5066953;28;20109;-77
2022/09/05 11:26:59;;;;;;;2.10;1.20;;;;;;;31.79;17.71;101475.06;5064458;28;20048;-78
2022/09/05 11:29:50;;;;;;;1.90;1.30;;;;;;;31.79;17.73;101471.38;5054655;28;20084;-78
2022/09/05 11:32:38;;;;;;;2.28;1.40;;;;;;;31.81;17.12;101474.81;5061660;28;20503;-77
2022/09/05 11:35:27;;;;;;;1.80;1.30;;;;;;;31.79;17.49;101474.22;5064207;28;20510;-77
2022/09/05 11:38:49;;;;;;;2.10;1.20;;;;;;;31.79;17.54;101465.72;5051068;28;20055;-77
2022/09/05 11:41:53;;;;;;;1.88;1.00;;;;;;;31.81;17.74;101466.34;5055919;28;20517;-76
2022/09/05 11:44:32;;;;;;;1.73;1.13;;;;;;;31.85;17.44;101464.69;5049543;28;20059;-75
2022/09/05 11:47:35;;;;;;;2.47;1.20;;;;;;;31.83;17.73;101475.41;5053792;28;20033;-76
2022/09/05 11:50:42;;;;;;;1.85;1.30;;;;;;;31.84;17.29;101463.81;5051776;28;20037;-76
2022/09/05 11:53:42;;;;;;;2.03;1.40;;;;;;;31.85;17.64;101471.19;5049036;28;20049;-76
2022/09/05 11:56:46;;;;;;;2.22;1.30;;;;;;;31.88;17.51;101465.03;5058227;28;20586;-76
2022/09/05 11:59:43;;;;;;;2.55;1.23;;;;;;;31.93;16.68;101464.22;5057297;28;20075;-77
2022/09/05 12:02:32;;;;;;;1.35;1.10;;;;;;;31.94;17.20;101457.44;5070919;28;20044;-77
2022/09/05 12:05:40;;;;;;;2.10;1.30;;;;;;;31.95;17.20;101451.53;5067380;28;20040;-76
2022/09/05 12:08:35;;;;;;;2.53;1.20;;;;;;;31.98;16.83;101453.81;5050778;28;20496;-76
2022/09/05 12:11:16;;;;;;;1.63;1.20;;;;;;;32.03;16.36;101453.03;5064886;28;20044;-76
2022/09/05 12:13:49;;;;;;;2.92;1.63;;;;;;;32.02;16.89;101465.47;5051066;28;20095;-76
2022/09/05 12:16:36;;;;;;;2.33;1.38;;;;;;;32.07;16.31;101459.88;5053613;28;20388;-76
2022/09/05 12:19:17;;;;;;;1.90;1.45;;;;;;;32.08;16.35;101457.88;5050636;28;20075;-77
2022/09/05 12:22:13;;;;;;;2.20;1.35;;;;;;;32.07;16.55;101456.19;5058947;28;20168;-76
2022/09/05 12:25:23;;;;;;;2.28;1.42;;;;;;;32.06;16.65;101446.84;5050341;28;20055;-76
2022/09/05 12:28:17;;;;;;;2.05;1.30;;;;;;;32.05;16.73;101447.97;5064358;28;20523;-76
2022/09/05 12:31:16;;;;;;;1.92;1.30;;;;;;;32.09;16.58;101446.31;5051846;28;20049;-76
2022/09/05 12:34:12;;;;;;;2.55;1.50;;;;;;;32.08;15.98;101444.59;5058844;28;20055;-76
2022/09/05 12:37:03;;;;;;;1.95;1.25;;;;;;;32.08;16.63;101447.41;5056825;28;20033;-77
2022/09/05 12:39:54;;;;;;;2.03;1.40;;;;;;;32.07;16.75;101440.03;5049545;28;20046;-76
2022/09/05 12:42:51;;;;;;;2.70;1.40;;;;;;;32.08;16.68;101438.06;5050719;28;20037;-76
2022/09/05 12:45:47;;;;;;;2.20;1.30;;;;;;;32.11;15.95;101446.03;5059890;28;20048;-76
2022/09/05 12:48:26;;;;;;;2.25;1.50;;;;;;;32.12;16.35;101437.28;5064888;28;20043;-76
2022/09/05 12:51:12;;;;;;;2.53;1.40;;;;;;;32.11;15.74;101431.88;5050474;28;20040;-75
2022/09/05 12:54:06;;;;;;;2.67;1.20;;;;;;;32.11;16.46;101437.56;5060196;28;20049;-76
2022/09/05 12:57:01;;;;;;;2.40;1.50;;;;;;;32.13;15.82;101424.00;5053457;28;20098;-76
2022/09/05 12:59:51;;;;;;;1.95;1.30;;;;;;;32.12;15.93;101425.09;5048666;28;20132;-76
2022/09/05 13:02:44;;;;;;;1.95;1.33;;;;;;;32.14;16.10;101428.56;5056260;28;20045;-76
2022/09/05 13:05:50;;;;;;;2.75;1.30;;;;;;;32.16;15.32;101426.31;5060075;28;20064;-76
2022/09/05 13:08:26;;;;;;;2.33;1.52;;;;;;;32.16;16.23;101423.47;5049172;28;20049;-76
2022/09/05 13:10:58;;;;;;;1.98;1.40;;;;;;;32.15;16.10;101424.59;5050733;28;20095;-76